Terminal Aerodrome Forecast
Issued by NWS

Home | Current Version | Previous Version | Text Only | Print | Product List | Glossary On
Versions: 1 2 3 4 5 6 7 8 9 10 11 12 13 14
000
FTUS44 KLIX 272326
TAFGPT
TAF
KGPT 272326Z 2800/2824 11008KT P6SM FEW026
     FM281200 06005KT P6SM BKN200
     FM281500 08010KT P6SM VCSH BKN250
     FM281700 11011KT P6SM OVC200=

USA.gov is the U.S. government's official web portal to all federal, state and local government web resources and services.